createdAt,value
2018-07-12T00:02:07.441Z,16.77
2018-07-12T00:04:34.964Z,16.13
2018-07-12T00:07:02.210Z,17.80
2018-07-12T00:09:29.458Z,18.27
2018-07-12T00:11:56.703Z,16.20
2018-07-12T00:14:23.939Z,17.57
2018-07-12T00:16:51.193Z,15.93
2018-07-12T00:19:18.435Z,17.33
2018-07-12T00:21:45.674Z,17.57
2018-07-12T00:24:12.905Z,16.83
2018-07-12T00:26:40.151Z,18.73
2018-07-12T00:29:07.399Z,16.13
2018-07-12T00:31:34.645Z,15.43
2018-07-12T00:34:01.878Z,15.30
2018-07-12T00:36:29.129Z,18.67
2018-07-12T00:38:56.388Z,16.17
2018-07-12T00:41:23.638Z,16.77
2018-07-12T00:43:50.899Z,15.63
2018-07-12T00:46:18.154Z,14.07
2018-07-12T00:48:45.414Z,16.73
2018-07-12T00:51:12.703Z,15.80
2018-07-12T00:53:39.954Z,17.03
2018-07-12T00:56:07.550Z,15.90
2018-07-12T00:58:34.801Z,16.57
2018-07-12T01:01:02.058Z,16.23
2018-07-12T01:03:29.334Z,15.53
2018-07-12T01:05:56.588Z,16.13
2018-07-12T01:08:23.834Z,16.17
2018-07-12T01:10:51.071Z,16.07
2018-07-12T01:13:18.312Z,18.97
2018-07-12T01:15:45.565Z,17.13
2018-07-12T01:18:12.807Z,17.33
2018-07-12T01:20:40.050Z,19.07
2018-07-12T01:23:07.318Z,18.10
2018-07-12T01:25:34.570Z,18.57
2018-07-12T01:28:01.813Z,17.40
2018-07-12T01:30:29.067Z,18.83
2018-07-12T01:32:56.305Z,17.43
2018-07-12T01:35:23.556Z,17.80
2018-07-12T01:37:50.801Z,18.43
2018-07-12T01:40:18.053Z,17.13
2018-07-12T01:42:45.291Z,17.43
2018-07-12T01:45:12.530Z,18.60
2018-07-12T01:47:39.787Z,21.20
2018-07-12T01:50:07.037Z,18.43
2018-07-12T01:52:34.287Z,19.40
2018-07-12T01:55:01.534Z,20.50
2018-07-12T01:57:28.785Z,20.13
2018-07-12T01:59:56.028Z,20.80
2018-07-12T02:02:23.289Z,18.67
2018-07-12T02:04:50.546Z,19.53
2018-07-12T02:07:17.803Z,21.17
2018-07-12T02:09:45.050Z,21.80
2018-07-12T02:12:12.307Z,20.43
2018-07-12T02:14:39.554Z,23.60
2018-07-12T02:17:06.824Z,23.27
2018-07-12T02:19:34.067Z,22.90
2018-07-12T02:22:01.315Z,23.67
2018-07-12T02:24:28.562Z,24.50
2018-07-12T02:26:55.842Z,22.47
2018-07-12T02:29:23.087Z,20.03
2018-07-12T02:31:50.322Z,21.53
2018-07-12T02:34:17.699Z,20.63
2018-07-12T02:36:44.947Z,20.47
2018-07-12T02:39:12.191Z,22.23
2018-07-12T02:41:39.438Z,21.30
2018-07-12T02:44:06.694Z,21.03
2018-07-12T02:46:33.931Z,22.57
2018-07-12T02:49:01.170Z,24.07
2018-07-12T02:51:28.407Z,23.57
2018-07-12T02:53:55.668Z,22.90
2018-07-12T02:56:22.918Z,23.20
2018-07-12T02:58:50.181Z,24.93
2018-07-12T03:01:17.434Z,24.37
2018-07-12T03:03:44.670Z,25.37
2018-07-12T03:06:11.919Z,23.90
2018-07-12T03:08:39.206Z,25.30
2018-07-12T03:11:06.432Z,23.73
2018-07-12T03:13:33.674Z,24.20
2018-07-12T03:16:00.922Z,25.50
2018-07-12T03:18:28.166Z,26.43
2018-07-12T03:20:55.418Z,26.30
2018-07-12T03:23:22.665Z,26.57
2018-07-12T03:25:49.910Z,27.77
2018-07-12T03:28:17.166Z,27.77
2018-07-12T03:30:44.466Z,28.53
2018-07-12T03:33:11.724Z,28.17
2018-07-12T03:35:38.995Z,28.30
2018-07-12T03:38:06.259Z,28.23
2018-07-12T03:40:33.588Z,30.20
2018-07-12T03:43:00.778Z,29.17
2018-07-12T03:45:28.019Z,30.53
2018-07-12T03:47:55.266Z,31.80
2018-07-12T03:50:22.507Z,32.50
2018-07-12T03:52:49.750Z,33.83
2018-07-12T03:55:16.994Z,39.50
2018-07-12T03:57:44.261Z,34.63
2018-07-12T04:00:11.506Z,33.47
2018-07-12T04:02:39.368Z,33.97
2018-07-12T04:05:06.618Z,33.53
2018-07-12T04:07:33.854Z,31.27
2018-07-12T04:10:01.101Z,28.40
2018-07-12T04:12:28.358Z,28.17
2018-07-12T04:14:55.686Z,26.67
2018-07-12T04:17:34.952Z,25.47
2018-07-12T04:20:03.429Z,26.83
2018-07-12T04:22:31.842Z,25.63
2018-07-12T04:24:59.084Z,28.23
2018-07-12T04:27:26.623Z,29.13
2018-07-12T04:29:55.119Z,28.97
2018-07-12T04:32:22.384Z,26.20
2018-07-12T04:34:50.117Z,26.13
2018-07-12T04:37:17.675Z,26.80
2018-07-12T04:39:45.186Z,29.10
2018-07-12T04:42:12.430Z,27.63
2018-07-12T04:44:39.682Z,27.70
2018-07-12T04:47:07.232Z,28.97
2018-07-12T04:49:34.479Z,28.13
2018-07-12T04:52:01.739Z,28.83
2018-07-12T04:54:29.373Z,28.13
2018-07-12T04:56:56.615Z,27.30
2018-07-12T04:59:23.878Z,28.20
2018-07-12T05:01:51.132Z,29.77
2018-07-12T05:07:48.778Z,24.53
2018-07-12T05:10:16.015Z,25.40
2018-07-12T05:12:43.258Z,24.23
2018-07-12T05:15:10.504Z,27.23
2018-07-12T05:17:37.750Z,25.47
2018-07-12T05:20:04.990Z,25.83
2018-07-12T05:22:32.239Z,24.90
2018-07-12T05:24:59.475Z,23.67
2018-07-12T05:27:26.748Z,24.33
2018-07-12T05:29:54.003Z,25.40
2018-07-12T05:32:21.252Z,25.03
2018-07-12T05:34:48.767Z,25.33
2018-07-12T05:37:17.032Z,28.33
2018-07-12T05:39:45.286Z,27.73
2018-07-12T05:42:13.543Z,28.83
2018-07-12T05:44:41.801Z,27.73
2018-07-12T05:47:10.059Z,27.97
2018-07-12T05:49:38.337Z,30.40
2018-07-12T05:52:06.682Z,29.43
2018-07-12T05:54:34.961Z,27.47
2018-07-12T05:57:03.264Z,30.03
2018-07-12T05:59:31.522Z,27.33
2018-07-12T06:02:05.155Z,31.43
2018-07-12T06:04:33.419Z,28.47
2018-07-12T06:07:01.677Z,29.93
2018-07-12T06:09:29.963Z,28.80
2018-07-12T06:11:58.219Z,27.67
2018-07-12T06:14:26.474Z,26.23
2018-07-12T06:16:54.722Z,25.03
2018-07-12T06:19:22.978Z,23.67
2018-07-12T06:21:51.261Z,27.07
2018-07-12T06:24:19.523Z,25.80
2018-07-12T06:26:47.783Z,27.27
2018-07-12T06:29:16.036Z,29.20
2018-07-12T06:31:44.306Z,25.50
2018-07-12T06:34:12.567Z,28.67
2018-07-12T06:36:40.570Z,29.87
2018-07-12T06:39:10.506Z,28.37
2018-07-12T06:41:39.028Z,27.93
2018-07-12T06:44:07.310Z,23.73
2018-07-12T06:46:35.582Z,23.47
2018-07-12T06:49:03.838Z,20.93
2018-07-12T06:51:32.179Z,20.33
2018-07-12T06:54:00.476Z,20.67
2018-07-12T06:56:28.735Z,21.73
2018-07-12T06:58:57.070Z,23.27
2018-07-12T07:01:25.350Z,19.57
2018-07-12T07:03:53.595Z,21.30
2018-07-12T07:06:21.863Z,20.37
2018-07-12T07:08:50.117Z,19.83
2018-07-12T07:11:18.399Z,17.90
2018-07-12T07:13:46.919Z,18.40
2018-07-12T07:16:15.175Z,17.10
2018-07-12T07:18:43.436Z,15.13
2018-07-12T07:21:11.685Z,15.50
2018-07-12T07:23:39.972Z,14.37
2018-07-12T07:26:08.276Z,15.90
2018-07-12T07:28:36.534Z,15.13
2018-07-12T07:31:04.792Z,15.40
2018-07-12T07:33:33.082Z,13.67
2018-07-12T07:36:01.331Z,15.23
2018-07-12T07:38:29.614Z,14.63
2018-07-12T07:40:57.883Z,14.47
2018-07-12T07:43:26.150Z,14.70
2018-07-12T07:45:54.531Z,13.53
2018-07-12T07:48:23.153Z,14.87
2018-07-12T07:50:51.410Z,15.17
2018-07-12T07:53:19.679Z,14.00
2018-07-12T07:55:47.932Z,13.10
2018-07-12T07:58:16.179Z,13.07
2018-07-12T08:00:44.437Z,14.00
2018-07-12T08:03:12.699Z,12.63
2018-07-12T08:05:40.958Z,12.10
2018-07-12T08:08:09.222Z,12.30
2018-07-12T08:10:37.476Z,10.00
2018-07-12T08:13:05.735Z,8.67
2018-07-12T08:15:33.999Z,9.58
2018-07-12T08:18:02.252Z,6.78
2018-07-12T08:20:30.557Z,9.33
2018-07-12T08:22:58.827Z,7.47
2018-07-12T08:25:27.099Z,7.83
2018-07-12T08:28:06.871Z,8.23
2018-07-12T08:30:35.159Z,8.40
2018-07-12T08:33:03.431Z,7.40
2018-07-12T08:35:31.718Z,7.25
2018-07-12T08:37:59.970Z,7.92
2018-07-12T08:40:28.226Z,9.43
2018-07-12T08:42:56.497Z,7.12
2018-07-12T08:45:24.845Z,8.37
2018-07-12T08:47:53.103Z,8.27
2018-07-12T08:50:21.087Z,7.97
2018-07-12T08:52:49.343Z,7.50
2018-07-12T08:55:17.590Z,7.90
2018-07-12T08:57:46.526Z,8.20
2018-07-12T09:00:14.772Z,9.00
2018-07-12T09:02:43.279Z,8.87
2018-07-12T09:05:11.719Z,8.27
2018-07-12T09:07:39.983Z,7.13
2018-07-12T09:10:08.294Z,6.47
2018-07-12T09:12:36.557Z,6.53
2018-07-12T09:15:04.815Z,6.58
2018-07-12T09:17:33.074Z,6.25
2018-07-12T09:20:01.339Z,6.75
2018-07-12T09:22:29.599Z,6.20
2018-07-12T09:24:57.872Z,6.53
2018-07-12T09:27:26.227Z,5.40
2018-07-12T09:29:54.495Z,5.40
2018-07-12T09:32:22.754Z,4.85
2018-07-12T09:34:51.177Z,5.70
2018-07-12T09:37:19.395Z,7.00
2018-07-12T09:39:47.742Z,6.10
2018-07-12T09:42:15.974Z,4.70
2018-07-12T09:44:44.229Z,4.25
2018-07-12T09:47:12.480Z,4.22
2018-07-12T09:49:40.756Z,5.20
2018-07-12T09:52:14.370Z,4.53
2018-07-12T09:54:42.626Z,4.80
2018-07-12T09:57:22.430Z,4.42
2018-07-12T09:59:50.722Z,4.12
2018-07-12T10:02:24.565Z,4.62
2018-07-12T10:04:52.845Z,5.03
2018-07-12T10:07:26.462Z,5.80
2018-07-12T10:09:56.363Z,5.72
2018-07-12T10:12:30.062Z,5.00
2018-07-12T10:15:03.754Z,4.40
2018-07-12T10:17:37.463Z,3.37
2018-07-12T10:20:06.471Z,2.67
2018-07-12T10:22:34.730Z,3.02
2018-07-12T10:25:03.010Z,3.00
2018-07-12T10:27:31.346Z,3.80
2018-07-12T10:29:59.623Z,2.72
2018-07-12T10:32:27.870Z,3.30
2018-07-12T10:34:56.150Z,5.00
2018-07-12T10:37:24.396Z,2.72
2018-07-12T10:39:52.865Z,2.98
2018-07-12T10:42:21.135Z,3.58
2018-07-12T10:44:49.405Z,3.02
2018-07-12T10:47:17.663Z,4.47
2018-07-12T10:49:45.939Z,4.08
2018-07-12T10:52:14.202Z,3.87
2018-07-12T10:54:42.478Z,2.87
2018-07-12T10:57:10.722Z,3.92
2018-07-12T10:59:38.982Z,2.77
2018-07-12T11:02:07.251Z,2.17
2018-07-12T11:04:35.531Z,2.60
2018-07-12T11:07:03.755Z,5.30
2018-07-12T11:09:32.011Z,2.40
2018-07-12T11:12:00.052Z,2.22
2018-07-12T11:14:28.301Z,5.92
2018-07-12T11:16:56.571Z,2.87
2018-07-12T11:19:24.824Z,3.17
2018-07-12T11:21:53.082Z,3.98
2018-07-12T11:24:21.346Z,2.17
2018-07-12T11:26:49.603Z,2.70
2018-07-12T11:29:18.672Z,2.70
2018-07-12T11:31:46.930Z,2.33
2018-07-12T11:34:15.180Z,2.50
2018-07-12T11:36:43.455Z,2.17
2018-07-12T11:39:11.705Z,3.90
2018-07-12T11:41:39.973Z,4.58
2018-07-12T11:44:08.243Z,3.12
2018-07-12T11:46:36.540Z,2.37
2018-07-12T11:49:04.806Z,2.90
2018-07-12T11:51:33.059Z,2.10
2018-07-12T11:54:01.310Z,1.82
2018-07-12T11:56:29.575Z,2.00
2018-07-12T11:58:57.838Z,2.95
2018-07-12T12:01:26.150Z,2.92
2018-07-12T12:03:54.354Z,2.90
2018-07-12T12:06:22.622Z,1.87
2018-07-12T12:08:50.887Z,4.87
2018-07-12T12:11:19.152Z,3.37
2018-07-12T12:13:47.436Z,5.10
2018-07-12T12:16:15.690Z,4.67
2018-07-12T12:18:43.967Z,1.80
2018-07-12T12:21:12.224Z,2.40
2018-07-12T12:23:40.481Z,2.22
2018-07-12T12:26:08.768Z,3.77
2018-07-12T12:28:37.011Z,3.02
2018-07-12T12:31:05.557Z,2.45
2018-07-12T12:33:33.857Z,6.62
2018-07-12T12:36:02.127Z,6.22
2018-07-12T12:38:30.386Z,3.15
2018-07-12T12:40:58.637Z,2.52
2018-07-12T12:43:26.886Z,2.40
2018-07-12T12:45:55.171Z,3.52
2018-07-12T12:48:23.442Z,2.08
2018-07-12T12:50:51.717Z,2.45
2018-07-12T12:53:19.955Z,3.02
2018-07-12T12:55:48.214Z,2.95
2018-07-12T12:58:17.208Z,2.98
2018-07-12T13:00:45.472Z,2.35
2018-07-12T13:03:13.484Z,2.55
2018-07-12T13:05:41.759Z,2.30
2018-07-12T13:08:10.054Z,2.13
2018-07-12T13:10:38.308Z,2.40
2018-07-12T13:13:06.823Z,2.35
2018-07-12T13:15:36.292Z,2.27
2018-07-12T13:18:04.771Z,2.37
2018-07-12T13:20:33.042Z,2.40
2018-07-12T13:23:01.431Z,3.00
2018-07-12T13:25:29.742Z,3.47
2018-07-12T13:27:58.052Z,1.90
2018-07-12T13:30:26.400Z,4.58
2018-07-12T13:32:54.710Z,1.90
2018-07-12T13:35:23.012Z,2.23
2018-07-12T13:37:51.276Z,2.90
2018-07-12T13:40:19.538Z,3.15
2018-07-12T13:42:47.832Z,3.25
2018-07-12T13:45:16.116Z,3.23
2018-07-12T13:47:44.407Z,2.23
2018-07-12T13:50:12.659Z,2.60
2018-07-12T13:52:40.971Z,1.97
2018-07-12T13:55:09.237Z,2.72
2018-07-12T13:57:37.588Z,3.53
2018-07-12T14:00:06.067Z,5.17
2018-07-12T14:02:34.374Z,3.30
2018-07-12T14:05:02.735Z,2.20
2018-07-12T14:07:30.981Z,6.23
2018-07-12T14:09:59.274Z,5.13
2018-07-12T14:12:27.636Z,2.60
2018-07-12T14:14:55.986Z,3.13
2018-07-12T14:17:24.314Z,3.22
2018-07-12T14:19:52.352Z,2.37
2018-07-12T14:22:21.445Z,5.75
2018-07-12T14:24:49.703Z,4.80
2018-07-12T14:27:18.029Z,3.00
2018-07-12T14:29:46.253Z,3.17
2018-07-12T14:32:14.508Z,4.47
2018-07-12T14:34:42.850Z,2.15
2018-07-12T14:37:11.290Z,1.95
2018-07-12T14:39:39.664Z,4.00
2018-07-12T14:42:07.939Z,2.40
2018-07-12T14:44:36.206Z,2.23
2018-07-12T14:47:04.511Z,2.17
2018-07-12T14:49:33.471Z,2.57
2018-07-12T14:52:01.760Z,2.30
2018-07-12T14:54:30.044Z,3.77
2018-07-12T14:56:58.300Z,2.10
2018-07-12T14:59:26.580Z,2.57
2018-07-12T15:01:54.948Z,2.20
2018-07-12T15:04:23.385Z,2.70
2018-07-12T15:06:51.732Z,2.20
2018-07-12T15:09:20.227Z,2.23
2018-07-12T15:11:48.535Z,4.87
2018-07-12T15:14:16.846Z,2.47
2018-07-12T15:16:45.206Z,3.03
2018-07-12T15:19:13.583Z,2.37
2018-07-12T15:21:41.868Z,2.20
2018-07-12T15:24:10.120Z,3.00
2018-07-12T15:26:38.399Z,2.20
2018-07-12T15:29:06.657Z,2.07
2018-07-12T15:31:35.078Z,4.40
2018-07-12T15:34:03.484Z,3.20
2018-07-12T15:36:34.186Z,2.43
2018-07-12T15:39:02.898Z,2.57
2018-07-12T15:41:31.283Z,3.03
2018-07-12T15:43:59.934Z,3.00
2018-07-12T15:46:28.317Z,2.17
2018-07-12T15:48:56.712Z,2.20
2018-07-12T15:51:25.088Z,2.50
2018-07-12T15:53:53.434Z,2.43
2018-07-12T15:56:21.710Z,3.03
2018-07-12T15:58:50.125Z,2.73
2018-07-12T16:01:18.443Z,5.80
2018-07-12T16:03:46.726Z,2.20
2018-07-12T16:06:15.024Z,2.33
2018-07-12T16:08:43.331Z,4.53
2018-07-12T16:11:11.761Z,2.37
2018-07-12T16:13:40.090Z,2.27
2018-07-12T16:16:08.466Z,2.43
2018-07-12T16:18:36.770Z,5.13
2018-07-12T16:21:05.080Z,2.10
2018-07-12T16:23:33.355Z,2.50
2018-07-12T16:26:01.643Z,2.50
2018-07-12T16:28:29.929Z,2.30
2018-07-12T16:30:58.220Z,2.53
2018-07-12T16:33:26.746Z,3.60
2018-07-12T16:35:55.005Z,2.20
2018-07-12T16:38:23.314Z,5.23
2018-07-12T16:40:51.650Z,2.70
2018-07-12T16:43:19.906Z,3.40
2018-07-12T16:45:48.210Z,2.87
2018-07-12T16:48:16.499Z,2.70
2018-07-12T16:50:45.058Z,2.47
2018-07-12T16:53:13.342Z,2.50
2018-07-12T16:55:41.612Z,2.30
2018-07-12T16:58:09.873Z,3.67
2018-07-12T17:00:39.067Z,8.07
2018-07-12T17:03:07.416Z,4.77
2018-07-12T17:05:35.740Z,2.40
2018-07-12T17:08:04.130Z,3.90
2018-07-12T17:10:32.454Z,2.73
2018-07-12T17:13:00.711Z,2.20
2018-07-12T17:15:29.018Z,2.20
2018-07-12T17:17:57.438Z,2.40
2018-07-12T17:20:25.707Z,2.80
2018-07-12T17:22:54.006Z,3.43
2018-07-12T17:25:22.279Z,2.40
2018-07-12T17:27:50.556Z,2.50
2018-07-12T17:30:18.847Z,3.90
2018-07-12T17:32:47.112Z,2.40
2018-07-12T17:35:15.369Z,3.90
2018-07-12T17:37:43.638Z,4.20
2018-07-12T17:40:11.954Z,2.70
2018-07-12T17:42:40.239Z,2.73
2018-07-12T17:45:09.325Z,4.40
2018-07-12T17:47:37.748Z,2.53
2018-07-12T17:50:05.970Z,2.97
2018-07-12T17:52:34.248Z,4.37
2018-07-12T17:55:02.504Z,2.50
2018-07-12T17:57:30.774Z,3.17
2018-07-12T17:59:59.091Z,2.53
2018-07-12T18:02:27.814Z,3.30
2018-07-12T18:04:56.125Z,2.67
2018-07-12T18:07:24.451Z,2.90
2018-07-12T18:09:52.722Z,2.70
2018-07-12T18:12:20.986Z,3.30
2018-07-12T18:14:49.256Z,2.87
2018-07-12T18:17:17.600Z,2.47
2018-07-12T18:19:46.029Z,2.70
2018-07-12T18:22:14.349Z,3.47
2018-07-12T18:24:42.549Z,2.57
2018-07-12T18:27:10.806Z,2.33
2018-07-12T18:29:39.091Z,2.30
2018-07-12T18:32:07.350Z,3.60
2018-07-12T18:34:35.612Z,3.10
2018-07-12T18:37:03.983Z,3.13
2018-07-12T18:39:32.238Z,3.10
2018-07-12T18:42:00.486Z,2.83
2018-07-12T18:44:28.749Z,2.57
2018-07-12T18:46:57.035Z,3.47
2018-07-12T18:49:25.299Z,2.50
2018-07-12T18:51:53.546Z,3.00
2018-07-12T18:54:21.823Z,4.10
2018-07-12T18:56:50.239Z,3.10
2018-07-12T18:59:18.495Z,2.60
2018-07-12T19:01:46.785Z,3.50
2018-07-12T19:04:15.044Z,3.20
2018-07-12T19:06:43.295Z,3.90
2018-07-12T19:09:11.608Z,2.87
2018-07-12T19:11:39.860Z,2.90
2018-07-12T19:14:09.141Z,3.13
2018-07-12T19:16:37.402Z,3.17
2018-07-12T19:19:05.663Z,3.07
2018-07-12T19:21:33.914Z,3.30
2018-07-12T19:24:02.467Z,3.50
2018-07-12T19:26:30.775Z,2.80
2018-07-12T19:28:59.019Z,2.90
2018-07-12T19:31:27.306Z,7.20
2018-07-12T19:33:55.622Z,3.33
2018-07-12T19:36:23.874Z,3.07
2018-07-12T19:38:52.166Z,3.57
2018-07-12T19:41:20.599Z,3.50
2018-07-12T19:43:48.963Z,3.83
2018-07-12T19:46:17.238Z,4.00
2018-07-12T19:48:45.502Z,3.23
2018-07-12T19:51:13.784Z,3.87
2018-07-12T19:53:42.046Z,3.77
2018-07-12T19:56:10.349Z,3.20
2018-07-12T19:58:39.030Z,3.53
2018-07-12T20:01:08.576Z,3.53
2018-07-12T20:03:36.892Z,5.00
2018-07-12T20:06:05.532Z,3.50
2018-07-12T20:08:33.801Z,4.07
2018-07-12T20:11:02.179Z,3.20
2018-07-12T20:13:30.436Z,6.13
2018-07-12T20:15:58.823Z,3.47
2018-07-12T20:18:27.633Z,3.50
2018-07-12T20:20:55.918Z,3.73
2018-07-12T20:23:24.303Z,3.97
2018-07-12T20:25:52.634Z,4.57
2018-07-12T20:28:20.922Z,3.27
2018-07-12T20:30:49.703Z,3.47
2018-07-12T20:33:17.707Z,5.30
2018-07-12T20:35:45.998Z,7.40
2018-07-12T20:38:14.348Z,4.00
2018-07-12T20:40:42.653Z,4.63
2018-07-12T20:43:14.997Z,4.20
2018-07-12T20:45:43.274Z,4.40
2018-07-12T20:48:11.566Z,7.23
2018-07-12T20:50:39.828Z,4.63
2018-07-12T20:53:08.253Z,4.80
2018-07-12T20:55:36.611Z,5.13
2018-07-12T20:58:04.883Z,4.60
2018-07-12T21:00:33.133Z,4.90
2018-07-12T21:03:01.386Z,4.50
2018-07-12T21:05:30.737Z,4.77
2018-07-12T21:07:58.984Z,5.40
2018-07-12T21:10:27.263Z,5.30
2018-07-12T21:12:55.526Z,5.80
2018-07-12T21:15:23.854Z,4.80
2018-07-12T21:17:52.062Z,6.00
2018-07-12T21:20:20.320Z,5.70
2018-07-12T21:22:48.643Z,4.63
2018-07-12T21:25:16.902Z,4.97
2018-07-12T21:27:45.158Z,5.13
2018-07-12T21:30:13.435Z,6.10
2018-07-12T21:32:41.686Z,5.20
2018-07-12T21:35:10.128Z,6.40
2018-07-12T21:37:38.515Z,7.07
2018-07-12T21:40:07.083Z,5.40
2018-07-12T21:42:35.367Z,8.10
2018-07-12T21:45:03.716Z,6.20
2018-07-12T21:47:31.975Z,6.13
2018-07-12T21:50:00.233Z,6.27
2018-07-12T21:52:28.490Z,6.67
2018-07-12T21:54:56.739Z,6.57
2018-07-12T21:57:24.981Z,6.70
2018-07-12T21:59:53.222Z,6.90
2018-07-12T22:02:21.604Z,8.73
2018-07-12T22:04:49.859Z,7.23
2018-07-12T22:08:23.967Z,7.70
2018-07-12T22:10:53.446Z,7.90
2018-07-12T22:13:22.508Z,7.83
2018-07-12T22:15:50.764Z,7.53
2018-07-12T22:18:19.274Z,7.70
2018-07-12T22:20:47.551Z,7.60
2018-07-12T22:23:15.820Z,8.67
2018-07-12T22:25:44.066Z,9.00
2018-07-12T22:28:12.426Z,9.17
2018-07-12T22:30:40.742Z,8.50
2018-07-12T22:33:08.997Z,9.23
2018-07-12T22:35:37.711Z,8.07
2018-07-12T22:38:06.206Z,8.87
2018-07-12T22:40:34.477Z,8.93
2018-07-12T22:43:02.733Z,8.50
2018-07-12T22:45:30.982Z,8.47
2018-07-12T22:47:59.281Z,9.60
2018-07-12T22:50:27.538Z,9.03
2018-07-12T22:52:55.933Z,9.23
2018-07-12T22:55:24.185Z,8.57
2018-07-12T22:57:52.200Z,9.10
2018-07-12T23:00:20.443Z,8.93
2018-07-12T23:02:48.708Z,10.17
2018-07-12T23:05:17.020Z,9.27
2018-07-12T23:07:45.279Z,9.97
2018-07-12T23:10:13.536Z,9.13
2018-07-12T23:12:41.779Z,8.87
2018-07-12T23:15:10.039Z,8.77
2018-07-12T23:17:38.286Z,8.90
2018-07-12T23:20:06.559Z,8.37
2018-07-12T23:22:34.823Z,9.23
2018-07-12T23:25:03.101Z,10.73
2018-07-12T23:27:31.358Z,9.53
2018-07-12T23:29:59.627Z,9.47
2018-07-12T23:32:27.884Z,9.13
2018-07-12T23:34:56.131Z,10.17
2018-07-12T23:37:24.388Z,9.43
2018-07-12T23:39:52.639Z,11.63
2018-07-12T23:42:20.903Z,9.87
2018-07-12T23:44:49.218Z,9.70
2018-07-12T23:47:17.486Z,9.30
2018-07-12T23:49:45.809Z,9.67
2018-07-12T23:52:14.069Z,9.67
2018-07-12T23:54:42.334Z,10.47
2018-07-12T23:57:10.588Z,9.97
2018-07-12T23:59:38.847Z,10.20
